sensor_id;sensor_type;location;lat;lon;timestamp;temperature;humidity
44117;DHT22;29781;49.480;8.512;2023-07-16T00:01:57;21.60;99.90
44117;DHT22;29781;49.480;8.512;2023-07-16T00:04:23;21.60;99.90
44117;DHT22;29781;49.480;8.512;2023-07-16T00:06:49;21.50;99.90
44117;DHT22;29781;49.480;8.512;2023-07-16T00:09:15;21.60;99.90
44117;DHT22;29781;49.480;8.512;2023-07-16T00:11:41;21.60;99.90
44117;DHT22;29781;49.480;8.512;2023-07-16T00:14:06;21.70;99.90
44117;DHT22;29781;49.480;8.512;2023-07-16T00:16:32;21.60;99.90
44117;DHT22;29781;49.480;8.512;2023-07-16T00:18:57;21.70;99.90
44117;DHT22;29781;49.480;8.512;2023-07-16T00:21:23;21.50;99.90
44117;DHT22;29781;49.480;8.512;2023-07-16T00:23:49;21.50;99.90
44117;DHT22;29781;49.480;8.512;2023-07-16T00:26:14;21.50;99.90
44117;DHT22;29781;49.480;8.512;2023-07-16T00:28:40;21.50;99.90
44117;DHT22;29781;49.480;8.512;2023-07-16T00:31:05;21.50;99.90
44117;DHT22;29781;49.480;8.512;2023-07-16T00:33:31;21.50;99.90
44117;DHT22;29781;49.480;8.512;2023-07-16T00:35:57;21.50;99.90
44117;DHT22;29781;49.480;8.512;2023-07-16T00:38:22;21.50;99.90
44117;DHT22;29781;49.480;8.512;2023-07-16T00:40:48;21.50;99.90
44117;DHT22;29781;49.480;8.512;2023-07-16T00:43:13;21.50;99.90
44117;DHT22;29781;49.480;8.512;2023-07-16T00:45:40;21.50;99.90
44117;DHT22;29781;49.480;8.512;2023-07-16T00:48:06;21.60;99.90
44117;DHT22;29781;49.480;8.512;2023-07-16T00:50:33;21.50;99.90
44117;DHT22;29781;49.480;8.512;2023-07-16T00:53:00;21.60;99.90
44117;DHT22;29781;49.480;8.512;2023-07-16T00:55:28;21.60;99.90
44117;DHT22;29781;49.480;8.512;2023-07-16T00:57:55;21.50;99.90
44117;DHT22;29781;49.480;8.512;2023-07-16T01:00:22;21.40;99.90
44117;DHT22;29781;49.480;8.512;2023-07-16T01:02:48;21.50;99.90
44117;DHT22;29781;49.480;8.512;2023-07-16T01:05:13;21.60;99.90
44117;DHT22;29781;49.480;8.512;2023-07-16T01:07:47;21.60;99.90
44117;DHT22;29781;49.480;8.512;2023-07-16T01:10:18;21.50;99.90
44117;DHT22;29781;49.480;8.512;2023-07-16T01:12:44;21.40;99.90
44117;DHT22;29781;49.480;8.512;2023-07-16T01:15:11;21.50;99.90
44117;DHT22;29781;49.480;8.512;2023-07-16T01:17:36;21.40;99.90
44117;DHT22;29781;49.480;8.512;2023-07-16T01:20:02;21.40;99.90
44117;DHT22;29781;49.480;8.512;2023-07-16T01:30:55;21.20;99.90
44117;DHT22;29781;49.480;8.512;2023-07-16T01:33:22;21.10;99.90
44117;DHT22;29781;49.480;8.512;2023-07-16T01:35:48;21.10;99.90
44117;DHT22;29781;49.480;8.512;2023-07-16T01:38:16;21.00;99.90
44117;DHT22;29781;49.480;8.512;2023-07-16T01:40:44;21.00;99.90
44117;DHT22;29781;49.480;8.512;2023-07-16T01:43:09;21.00;99.90
44117;DHT22;29781;49.480;8.512;2023-07-16T01:45:35;20.90;99.90
44117;DHT22;29781;49.480;8.512;2023-07-16T01:50:35;21.00;99.90
44117;DHT22;29781;49.480;8.512;2023-07-16T01:53:01;20.90;99.90
44117;DHT22;29781;49.480;8.512;2023-07-16T01:55:26;20.90;99.90
44117;DHT22;29781;49.480;8.512;2023-07-16T01:57:52;20.90;99.90
44117;DHT22;29781;49.480;8.512;2023-07-16T02:00:17;20.90;99.90
44117;DHT22;29781;49.480;8.512;2023-07-16T02:02:43;20.90;99.90
44117;DHT22;29781;49.480;8.512;2023-07-16T02:05:08;20.90;99.90
44117;DHT22;29781;49.480;8.512;2023-07-16T02:07:34;20.80;99.90
44117;DHT22;29781;49.480;8.512;2023-07-16T02:09:59;20.70;99.90
44117;DHT22;29781;49.480;8.512;2023-07-16T02:12:25;20.80;99.90
44117;DHT22;29781;49.480;8.512;2023-07-16T02:14:50;20.80;99.90
44117;DHT22;29781;49.480;8.512;2023-07-16T02:17:16;20.60;99.90
44117;DHT22;29781;49.480;8.512;2023-07-16T02:19:41;20.70;99.90
44117;DHT22;29781;49.480;8.512;2023-07-16T02:22:07;20.80;99.90
44117;DHT22;29781;49.480;8.512;2023-07-16T02:24:33;20.70;99.90
44117;DHT22;29781;49.480;8.512;2023-07-16T02:26:58;20.70;99.90
44117;DHT22;29781;49.480;8.512;2023-07-16T02:29:24;20.70;99.90
44117;DHT22;29781;49.480;8.512;2023-07-16T02:31:49;20.70;99.90
44117;DHT22;29781;49.480;8.512;2023-07-16T02:34:15;20.80;99.90
44117;DHT22;29781;49.480;8.512;2023-07-16T02:36:40;20.80;99.90
44117;DHT22;29781;49.480;8.512;2023-07-16T02:39:06;20.90;99.90
44117;DHT22;29781;49.480;8.512;2023-07-16T02:41:31;20.80;99.90
44117;DHT22;29781;49.480;8.512;2023-07-16T02:44:01;20.80;99.90
44117;DHT22;29781;49.480;8.512;2023-07-16T02:46:27;20.70;99.90
44117;DHT22;29781;49.480;8.512;2023-07-16T02:48:52;20.70;99.90
44117;DHT22;29781;49.480;8.512;2023-07-16T02:51:18;20.70;99.90
44117;DHT22;29781;49.480;8.512;2023-07-16T02:53:43;20.70;99.90
44117;DHT22;29781;49.480;8.512;2023-07-16T02:56:09;20.70;99.90
44117;DHT22;29781;49.480;8.512;2023-07-16T02:58:34;20.70;99.90
44117;DHT22;29781;49.480;8.512;2023-07-16T03:01:00;20.70;99.90
44117;DHT22;29781;49.480;8.512;2023-07-16T03:03:25;20.70;99.90
44117;DHT22;29781;49.480;8.512;2023-07-16T03:05:51;20.60;99.90
44117;DHT22;29781;49.480;8.512;2023-07-16T03:08:16;20.50;99.90
44117;DHT22;29781;49.480;8.512;2023-07-16T03:10:42;20.40;99.90
44117;DHT22;29781;49.480;8.512;2023-07-16T03:13:07;20.30;99.90
44117;DHT22;29781;49.480;8.512;2023-07-16T03:15:33;20.30;99.90
44117;DHT22;29781;49.480;8.512;2023-07-16T03:17:58;20.20;99.90
44117;DHT22;29781;49.480;8.512;2023-07-16T03:20:24;20.20;99.90
44117;DHT22;29781;49.480;8.512;2023-07-16T03:22:49;20.20;99.90
44117;DHT22;29781;49.480;8.512;2023-07-16T03:25:15;20.20;99.90
44117;DHT22;29781;49.480;8.512;2023-07-16T03:27:40;20.30;99.90
44117;DHT22;29781;49.480;8.512;2023-07-16T03:30:06;20.20;99.90
44117;DHT22;29781;49.480;8.512;2023-07-16T03:32:32;20.20;99.90
44117;DHT22;29781;49.480;8.512;2023-07-16T03:34:57;20.10;99.90
44117;DHT22;29781;49.480;8.512;2023-07-16T03:37:23;20.10;99.90
44117;DHT22;29781;49.480;8.512;2023-07-16T03:39:48;20.10;99.90
44117;DHT22;29781;49.480;8.512;2023-07-16T03:42:14;20.20;99.90
44117;DHT22;29781;49.480;8.512;2023-07-16T03:44:39;20.20;99.90
44117;DHT22;29781;49.480;8.512;2023-07-16T03:47:05;20.20;99.90
44117;DHT22;29781;49.480;8.512;2023-07-16T03:49:30;20.10;99.90
44117;DHT22;29781;49.480;8.512;2023-07-16T03:51:56;20.00;99.90
44117;DHT22;29781;49.480;8.512;2023-07-16T03:54:21;20.00;99.90
44117;DHT22;29781;49.480;8.512;2023-07-16T03:56:47;20.10;99.90
44117;DHT22;29781;49.480;8.512;2023-07-16T03:59:12;20.00;99.90
44117;DHT22;29781;49.480;8.512;2023-07-16T04:01:38;20.00;99.90
44117;DHT22;29781;49.480;8.512;2023-07-16T04:04:03;19.90;99.90
44117;DHT22;29781;49.480;8.512;2023-07-16T04:06:29;19.80;99.90
44117;DHT22;29781;49.480;8.512;2023-07-16T04:08:54;19.90;99.90
44117;DHT22;29781;49.480;8.512;2023-07-16T04:11:20;19.80;99.90
44117;DHT22;29781;49.480;8.512;2023-07-16T04:13:45;19.90;99.90
44117;DHT22;29781;49.480;8.512;2023-07-16T04:16:11;20.00;99.90
44117;DHT22;29781;49.480;8.512;2023-07-16T04:18:36;20.20;99.90
44117;DHT22;29781;49.480;8.512;2023-07-16T04:21:02;20.20;99.90
44117;DHT22;29781;49.480;8.512;2023-07-16T04:23:27;20.20;99.90
44117;DHT22;29781;49.480;8.512;2023-07-16T04:25:53;20.20;99.90
44117;DHT22;29781;49.480;8.512;2023-07-16T04:28:20;20.30;99.90
44117;DHT22;29781;49.480;8.512;2023-07-16T04:30:45;20.30;99.90
44117;DHT22;29781;49.480;8.512;2023-07-16T04:33:11;20.20;99.90
44117;DHT22;29781;49.480;8.512;2023-07-16T04:35:36;20.10;99.90
44117;DHT22;29781;49.480;8.512;2023-07-16T04:38:02;19.80;99.90
44117;DHT22;29781;49.480;8.512;2023-07-16T04:40:29;19.90;99.90
44117;DHT22;29781;49.480;8.512;2023-07-16T04:42:55;19.90;99.90
44117;DHT22;29781;49.480;8.512;2023-07-16T04:45:20;20.00;99.90
44117;DHT22;29781;49.480;8.512;2023-07-16T04:47:46;19.90;99.90
44117;DHT22;29781;49.480;8.512;2023-07-16T04:50:11;19.90;99.90
44117;DHT22;29781;49.480;8.512;2023-07-16T04:52:37;19.80;99.90
44117;DHT22;29781;49.480;8.512;2023-07-16T04:55:03;19.90;99.90
44117;DHT22;29781;49.480;8.512;2023-07-16T04:57:29;19.90;99.90
44117;DHT22;29781;49.480;8.512;2023-07-16T04:59:54;20.00;99.90
44117;DHT22;29781;49.480;8.512;2023-07-16T05:02:20;19.90;99.90
44117;DHT22;29781;49.480;8.512;2023-07-16T05:04:46;19.90;99.90
44117;DHT22;29781;49.480;8.512;2023-07-16T05:07:13;19.90;99.90
44117;DHT22;29781;49.480;8.512;2023-07-16T05:09:39;20.00;99.90
44117;DHT22;29781;49.480;8.512;2023-07-16T05:12:05;20.00;99.90
44117;DHT22;29781;49.480;8.512;2023-07-16T05:14:30;20.00;99.90
44117;DHT22;29781;49.480;8.512;2023-07-16T05:16:56;20.10;99.90
44117;DHT22;29781;49.480;8.512;2023-07-16T05:19:22;20.10;99.90
44117;DHT22;29781;49.480;8.512;2023-07-16T05:21:48;20.20;99.90
44117;DHT22;29781;49.480;8.512;2023-07-16T05:24:13;20.20;99.90
44117;DHT22;29781;49.480;8.512;2023-07-16T05:26:39;20.20;99.90
44117;DHT22;29781;49.480;8.512;2023-07-16T05:29:04;20.10;99.90
44117;DHT22;29781;49.480;8.512;2023-07-16T05:31:30;20.10;99.90
44117;DHT22;29781;49.480;8.512;2023-07-16T05:33:56;20.20;99.90
44117;DHT22;29781;49.480;8.512;2023-07-16T05:36:21;20.20;99.90
44117;DHT22;29781;49.480;8.512;2023-07-16T05:38:47;20.30;99.90
44117;DHT22;29781;49.480;8.512;2023-07-16T05:41:12;20.40;99.90
44117;DHT22;29781;49.480;8.512;2023-07-16T05:43:38;20.60;99.90
44117;DHT22;29781;49.480;8.512;2023-07-16T05:46:03;20.70;99.90
44117;DHT22;29781;49.480;8.512;2023-07-16T05:48:30;20.80;99.90
44117;DHT22;29781;49.480;8.512;2023-07-16T05:50:56;20.60;99.90
44117;DHT22;29781;49.480;8.512;2023-07-16T05:53:21;20.50;99.90
44117;DHT22;29781;49.480;8.512;2023-07-16T05:55:47;20.50;99.90
44117;DHT22;29781;49.480;8.512;2023-07-16T05:58:15;20.40;99.90
44117;DHT22;29781;49.480;8.512;2023-07-16T06:00:40;20.40;99.90
44117;DHT22;29781;49.480;8.512;2023-07-16T06:03:06;20.50;99.90
44117;DHT22;29781;49.480;8.512;2023-07-16T06:05:31;20.50;99.90
44117;DHT22;29781;49.480;8.512;2023-07-16T06:08:00;20.60;99.90
44117;DHT22;29781;49.480;8.512;2023-07-16T06:10:25;20.50;99.90
44117;DHT22;29781;49.480;8.512;2023-07-16T06:12:51;20.40;99.90
44117;DHT22;29781;49.480;8.512;2023-07-16T06:15:16;20.50;99.90
44117;DHT22;29781;49.480;8.512;2023-07-16T06:17:42;20.60;99.90
44117;DHT22;29781;49.480;8.512;2023-07-16T06:20:08;20.60;99.90
44117;DHT22;29781;49.480;8.512;2023-07-16T06:22:34;20.70;99.90
44117;DHT22;29781;49.480;8.512;2023-07-16T06:25:00;20.70;99.90
44117;DHT22;29781;49.480;8.512;2023-07-16T06:27:25;20.90;99.90
44117;DHT22;29781;49.480;8.512;2023-07-16T06:29:51;21.00;99.90
44117;DHT22;29781;49.480;8.512;2023-07-16T06:32:17;21.00;99.90
44117;DHT22;29781;49.480;8.512;2023-07-16T06:34:42;21.10;99.90
44117;DHT22;29781;49.480;8.512;2023-07-16T06:37:08;21.10;99.90
44117;DHT22;29781;49.480;8.512;2023-07-16T06:39:33;21.00;99.90
44117;DHT22;29781;49.480;8.512;2023-07-16T06:41:59;21.00;99.90
44117;DHT22;29781;49.480;8.512;2023-07-16T06:44:24;20.90;99.90
44117;DHT22;29781;49.480;8.512;2023-07-16T06:46:50;20.70;99.90
44117;DHT22;29781;49.480;8.512;2023-07-16T06:49:15;20.90;99.90
44117;DHT22;29781;49.480;8.512;2023-07-16T06:51:41;20.90;99.90
44117;DHT22;29781;49.480;8.512;2023-07-16T06:54:07;20.90;99.90
44117;DHT22;29781;49.480;8.512;2023-07-16T06:56:33;21.10;99.90
44117;DHT22;29781;49.480;8.512;2023-07-16T06:58:58;21.20;99.90
44117;DHT22;29781;49.480;8.512;2023-07-16T07:01:24;21.40;99.90
44117;DHT22;29781;49.480;8.512;2023-07-16T07:03:49;21.40;99.90
44117;DHT22;29781;49.480;8.512;2023-07-16T07:06:15;21.10;99.90
44117;DHT22;29781;49.480;8.512;2023-07-16T07:08:40;21.10;99.90
44117;DHT22;29781;49.480;8.512;2023-07-16T07:11:06;21.20;99.90
44117;DHT22;29781;49.480;8.512;2023-07-16T07:13:31;21.20;99.90
44117;DHT22;29781;49.480;8.512;2023-07-16T07:15:57;21.40;99.90
44117;DHT22;29781;49.480;8.512;2023-07-16T07:18:22;21.50;99.90
44117;DHT22;29781;49.480;8.512;2023-07-16T07:20:48;21.60;99.90
44117;DHT22;29781;49.480;8.512;2023-07-16T07:23:15;21.70;99.90
44117;DHT22;29781;49.480;8.512;2023-07-16T07:25:41;21.60;99.90
44117;DHT22;29781;49.480;8.512;2023-07-16T07:28:06;21.50;99.90
44117;DHT22;29781;49.480;8.512;2023-07-16T07:30:32;21.60;99.90
44117;DHT22;29781;49.480;8.512;2023-07-16T07:32:58;21.70;99.90
44117;DHT22;29781;49.480;8.512;2023-07-16T07:35:23;21.80;99.90
44117;DHT22;29781;49.480;8.512;2023-07-16T07:37:49;21.40;99.90
44117;DHT22;29781;49.480;8.512;2023-07-16T07:40:15;21.40;99.90
44117;DHT22;29781;49.480;8.512;2023-07-16T07:42:40;21.60;99.90
44117;DHT22;29781;49.480;8.512;2023-07-16T07:45:06;21.70;99.90
44117;DHT22;29781;49.480;8.512;2023-07-16T07:47:32;21.70;99.90
44117;DHT22;29781;49.480;8.512;2023-07-16T07:49:57;21.90;99.90
44117;DHT22;29781;49.480;8.512;2023-07-16T07:52:23;22.00;99.90
44117;DHT22;29781;49.480;8.512;2023-07-16T07:54:48;22.20;99.90
44117;DHT22;29781;49.480;8.512;2023-07-16T07:57:14;22.20;99.90
44117;DHT22;29781;49.480;8.512;2023-07-16T07:59:40;22.10;99.90
44117;DHT22;29781;49.480;8.512;2023-07-16T08:02:05;22.10;99.90
44117;DHT22;29781;49.480;8.512;2023-07-16T08:04:31;22.10;99.90
44117;DHT22;29781;49.480;8.512;2023-07-16T08:06:57;22.20;99.90
44117;DHT22;29781;49.480;8.512;2023-07-16T08:09:23;22.20;99.90
44117;DHT22;29781;49.480;8.512;2023-07-16T08:11:49;22.30;99.90
44117;DHT22;29781;49.480;8.512;2023-07-16T08:14:14;22.40;99.90
44117;DHT22;29781;49.480;8.512;2023-07-16T08:16:40;22.40;99.90
44117;DHT22;29781;49.480;8.512;2023-07-16T08:19:05;22.40;99.90
44117;DHT22;29781;49.480;8.512;2023-07-16T08:21:32;22.30;99.90
44117;DHT22;29781;49.480;8.512;2023-07-16T08:23:58;22.40;99.90
44117;DHT22;29781;49.480;8.512;2023-07-16T08:26:23;22.00;99.90
44117;DHT22;29781;49.480;8.512;2023-07-16T08:28:49;21.70;99.90
44117;DHT22;29781;49.480;8.512;2023-07-16T08:31:14;21.50;99.90
44117;DHT22;29781;49.480;8.512;2023-07-16T08:33:40;21.40;99.90
44117;DHT22;29781;49.480;8.512;2023-07-16T08:36:05;21.50;99.90
44117;DHT22;29781;49.480;8.512;2023-07-16T08:38:31;21.40;99.90
44117;DHT22;29781;49.480;8.512;2023-07-16T08:40:56;21.50;99.90
44117;DHT22;29781;49.480;8.512;2023-07-16T08:43:22;21.70;99.90
44117;DHT22;29781;49.480;8.512;2023-07-16T08:45:49;21.60;99.90
44117;DHT22;29781;49.480;8.512;2023-07-16T08:48:16;21.60;99.90
44117;DHT22;29781;49.480;8.512;2023-07-16T08:50:46;21.80;99.90
44117;DHT22;29781;49.480;8.512;2023-07-16T08:53:17;21.80;99.90
44117;DHT22;29781;49.480;8.512;2023-07-16T08:55:44;21.80;99.90
44117;DHT22;29781;49.480;8.512;2023-07-16T08:58:12;22.10;99.90
44117;DHT22;29781;49.480;8.512;2023-07-16T09:00:43;22.40;99.90
44117;DHT22;29781;49.480;8.512;2023-07-16T09:03:11;22.50;99.90
44117;DHT22;29781;49.480;8.512;2023-07-16T09:05:38;22.50;99.90
44117;DHT22;29781;49.480;8.512;2023-07-16T09:08:04;22.40;99.90
44117;DHT22;29781;49.480;8.512;2023-07-16T09:10:30;22.10;99.90
44117;DHT22;29781;49.480;8.512;2023-07-16T09:12:58;22.10;99.90
44117;DHT22;29781;49.480;8.512;2023-07-16T09:15:24;22.30;99.90
44117;DHT22;29781;49.480;8.512;2023-07-16T09:17:49;22.40;99.90
44117;DHT22;29781;49.480;8.512;2023-07-16T09:20:16;22.50;99.90
44117;DHT22;29781;49.480;8.512;2023-07-16T09:22:43;22.70;99.90
44117;DHT22;29781;49.480;8.512;2023-07-16T09:25:08;22.90;99.90
44117;DHT22;29781;49.480;8.512;2023-07-16T09:27:34;23.00;99.90
44117;DHT22;29781;49.480;8.512;2023-07-16T09:30:00;22.80;99.90
44117;DHT22;29781;49.480;8.512;2023-07-16T09:32:40;22.90;99.90
44117;DHT22;29781;49.480;8.512;2023-07-16T09:35:10;23.10;99.90
44117;DHT22;29781;49.480;8.512;2023-07-16T09:37:37;23.20;99.90
44117;DHT22;29781;49.480;8.512;2023-07-16T09:40:07;23.20;99.90
44117;DHT22;29781;49.480;8.512;2023-07-16T09:42:40;23.20;99.90
44117;DHT22;29781;49.480;8.512;2023-07-16T09:45:27;23.20;99.90
44117;DHT22;29781;49.480;8.512;2023-07-16T09:47:52;23.10;99.90
44117;DHT22;29781;49.480;8.512;2023-07-16T09:50:18;23.20;99.90
44117;DHT22;29781;49.480;8.512;2023-07-16T09:52:43;23.30;99.90
44117;DHT22;29781;49.480;8.512;2023-07-16T09:55:10;23.50;99.90
44117;DHT22;29781;49.480;8.512;2023-07-16T09:57:38;23.70;99.90
44117;DHT22;29781;49.480;8.512;2023-07-16T10:00:06;23.80;99.90
44117;DHT22;29781;49.480;8.512;2023-07-16T10:02:36;23.90;99.90
44117;DHT22;29781;49.480;8.512;2023-07-16T10:05:16;24.30;99.90
44117;DHT22;29781;49.480;8.512;2023-07-16T10:07:43;24.60;99.90
44117;DHT22;29781;49.480;8.512;2023-07-16T10:10:09;24.40;99.90
44117;DHT22;29781;49.480;8.512;2023-07-16T10:12:36;24.30;99.90
44117;DHT22;29781;49.480;8.512;2023-07-16T10:15:02;24.20;99.90
44117;DHT22;29781;49.480;8.512;2023-07-16T10:17:31;24.10;99.90
44117;DHT22;29781;49.480;8.512;2023-07-16T10:20:06;24.00;99.90
44117;DHT22;29781;49.480;8.512;2023-07-16T10:22:39;23.70;99.90
44117;DHT22;29781;49.480;8.512;2023-07-16T10:27:34;23.50;99.90
44117;DHT22;29781;49.480;8.512;2023-07-16T10:30:01;23.60;99.90
44117;DHT22;29781;49.480;8.512;2023-07-16T10:32:32;23.70;99.90
44117;DHT22;29781;49.480;8.512;2023-07-16T10:34:58;23.90;99.90
44117;DHT22;29781;49.480;8.512;2023-07-16T10:37:24;24.20;99.90
44117;DHT22;29781;49.480;8.512;2023-07-16T10:39:54;24.30;99.90
44117;DHT22;29781;49.480;8.512;2023-07-16T10:42:22;24.10;99.90
44117;DHT22;29781;49.480;8.512;2023-07-16T10:44:52;24.30;99.90
44117;DHT22;29781;49.480;8.512;2023-07-16T10:47:22;24.20;99.90
44117;DHT22;29781;49.480;8.512;2023-07-16T10:49:50;24.10;99.90
44117;DHT22;29781;49.480;8.512;2023-07-16T10:52:17;24.00;99.90
44117;DHT22;29781;49.480;8.512;2023-07-16T10:54:43;24.00;99.90
44117;DHT22;29781;49.480;8.512;2023-07-16T10:57:10;24.10;99.90
44117;DHT22;29781;49.480;8.512;2023-07-16T10:59:38;23.90;99.90
44117;DHT22;29781;49.480;8.512;2023-07-16T11:02:08;23.90;99.90
44117;DHT22;29781;49.480;8.512;2023-07-16T11:04:34;24.00;99.90
44117;DHT22;29781;49.480;8.512;2023-07-16T11:07:04;24.30;99.90
44117;DHT22;29781;49.480;8.512;2023-07-16T11:09:31;24.10;99.90
44117;DHT22;29781;49.480;8.512;2023-07-16T11:12:05;24.20;99.90
44117;DHT22;29781;49.480;8.512;2023-07-16T11:14:32;24.00;99.90
44117;DHT22;29781;49.480;8.512;2023-07-16T11:17:04;24.20;99.90
44117;DHT22;29781;49.480;8.512;2023-07-16T11:19:31;24.20;99.90
44117;DHT22;29781;49.480;8.512;2023-07-16T11:21:57;24.40;99.90
44117;DHT22;29781;49.480;8.512;2023-07-16T11:24:23;24.40;99.90
44117;DHT22;29781;49.480;8.512;2023-07-16T11:26:54;24.40;99.90
44117;DHT22;29781;49.480;8.512;2023-07-16T11:29:22;24.60;99.90
44117;DHT22;29781;49.480;8.512;2023-07-16T11:31:52;24.50;99.90
44117;DHT22;29781;49.480;8.512;2023-07-16T11:34:20;24.50;99.90
44117;DHT22;29781;49.480;8.512;2023-07-16T11:36:47;24.40;99.90
44117;DHT22;29781;49.480;8.512;2023-07-16T11:39:12;24.50;99.90
44117;DHT22;29781;49.480;8.512;2023-07-16T11:41:38;24.40;99.90
44117;DHT22;29781;49.480;8.512;2023-07-16T11:44:04;24.50;99.90
44117;DHT22;29781;49.480;8.512;2023-07-16T11:46:33;24.50;99.90
44117;DHT22;29781;49.480;8.512;2023-07-16T11:49:00;24.30;99.90
44117;DHT22;29781;49.480;8.512;2023-07-16T11:51:25;24.30;99.90
44117;DHT22;29781;49.480;8.512;2023-07-16T11:53:51;24.40;99.90
44117;DHT22;29781;49.480;8.512;2023-07-16T11:56:17;24.20;99.90
44117;DHT22;29781;49.480;8.512;2023-07-16T11:58:42;24.10;99.90
44117;DHT22;29781;49.480;8.512;2023-07-16T12:01:08;23.90;99.90
44117;DHT22;29781;49.480;8.512;2023-07-16T12:03:34;23.90;99.90
44117;DHT22;29781;49.480;8.512;2023-07-16T12:06:00;23.80;99.90
44117;DHT22;29781;49.480;8.512;2023-07-16T12:08:25;23.80;99.90
44117;DHT22;29781;49.480;8.512;2023-07-16T12:10:51;23.90;99.90
44117;DHT22;29781;49.480;8.512;2023-07-16T12:13:16;24.10;99.90
44117;DHT22;29781;49.480;8.512;2023-07-16T12:15:42;24.20;99.90
44117;DHT22;29781;49.480;8.512;2023-07-16T12:18:07;24.40;99.90
44117;DHT22;29781;49.480;8.512;2023-07-16T12:20:34;24.50;99.90
44117;DHT22;29781;49.480;8.512;2023-07-16T12:23:01;24.50;99.90
44117;DHT22;29781;49.480;8.512;2023-07-16T12:25:28;24.40;99.90
44117;DHT22;29781;49.480;8.512;2023-07-16T12:27:53;24.40;99.90
44117;DHT22;29781;49.480;8.512;2023-07-16T12:30:19;24.50;99.90
44117;DHT22;29781;49.480;8.512;2023-07-16T12:32:45;24.40;99.90
44117;DHT22;29781;49.480;8.512;2023-07-16T12:35:10;24.50;99.90
44117;DHT22;29781;49.480;8.512;2023-07-16T12:37:36;24.60;99.90
44117;DHT22;29781;49.480;8.512;2023-07-16T12:40:01;24.60;99.90
44117;DHT22;29781;49.480;8.512;2023-07-16T12:42:27;24.70;99.90
44117;DHT22;29781;49.480;8.512;2023-07-16T12:44:53;24.80;99.90
44117;DHT22;29781;49.480;8.512;2023-07-16T12:47:18;25.00;99.90
44117;DHT22;29781;49.480;8.512;2023-07-16T12:49:44;25.10;99.90
44117;DHT22;29781;49.480;8.512;2023-07-16T12:52:09;25.00;99.90
44117;DHT22;29781;49.480;8.512;2023-07-16T12:54:35;25.10;99.90
44117;DHT22;29781;49.480;8.512;2023-07-16T12:57:00;25.20;99.90
44117;DHT22;29781;49.480;8.512;2023-07-16T12:59:26;25.30;99.90
44117;DHT22;29781;49.480;8.512;2023-07-16T13:01:52;25.40;99.90
44117;DHT22;29781;49.480;8.512;2023-07-16T13:04:17;25.50;99.90
44117;DHT22;29781;49.480;8.512;2023-07-16T13:06:43;25.50;99.90
44117;DHT22;29781;49.480;8.512;2023-07-16T13:09:13;25.50;99.90
44117;DHT22;29781;49.480;8.512;2023-07-16T13:11:38;25.60;99.90
44117;DHT22;29781;49.480;8.512;2023-07-16T13:14:04;25.60;99.90
44117;DHT22;29781;49.480;8.512;2023-07-16T13:16:29;25.60;99.80
44117;DHT22;29781;49.480;8.512;2023-07-16T13:18:55;25.40;99.90
44117;DHT22;29781;49.480;8.512;2023-07-16T13:21:20;25.30;99.80
44117;DHT22;29781;49.480;8.512;2023-07-16T13:23:46;25.40;99.90
44117;DHT22;29781;49.480;8.512;2023-07-16T13:26:11;25.60;99.90
44117;DHT22;29781;49.480;8.512;2023-07-16T13:28:37;25.80;99.40
44117;DHT22;29781;49.480;8.512;2023-07-16T13:31:02;25.60;99.40
44117;DHT22;29781;49.480;8.512;2023-07-16T13:33:28;25.60;99.30
44117;DHT22;29781;49.480;8.512;2023-07-16T13:35:53;25.40;99.90
44117;DHT22;29781;49.480;8.512;2023-07-16T13:38:19;25.50;99.70
44117;DHT22;29781;49.480;8.512;2023-07-16T13:40:44;25.60;99.20
44117;DHT22;29781;49.480;8.512;2023-07-16T13:43:10;25.70;99.00
44117;DHT22;29781;49.480;8.512;2023-07-16T13:45:36;25.70;99.10
44117;DHT22;29781;49.480;8.512;2023-07-16T13:48:01;25.80;99.20
44117;DHT22;29781;49.480;8.512;2023-07-16T13:50:27;25.70;98.40
44117;DHT22;29781;49.480;8.512;2023-07-16T13:52:52;25.70;99.00
44117;DHT22;29781;49.480;8.512;2023-07-16T13:55:18;25.60;98.10
44117;DHT22;29781;49.480;8.512;2023-07-16T13:57:43;25.60;98.10
44117;DHT22;29781;49.480;8.512;2023-07-16T14:00:09;25.70;98.10
44117;DHT22;29781;49.480;8.512;2023-07-16T14:02:36;25.70;97.70
44117;DHT22;29781;49.480;8.512;2023-07-16T14:05:02;25.90;97.00
44117;DHT22;29781;49.480;8.512;2023-07-16T14:07:28;26.00;96.60
44117;DHT22;29781;49.480;8.512;2023-07-16T14:09:54;26.00;96.90
44117;DHT22;29781;49.480;8.512;2023-07-16T14:12:19;25.80;96.80
44117;DHT22;29781;49.480;8.512;2023-07-16T14:14:45;25.70;96.50
44117;DHT22;29781;49.480;8.512;2023-07-16T14:17:11;25.80;96.80
44117;DHT22;29781;49.480;8.512;2023-07-16T14:19:36;25.80;96.80
44117;DHT22;29781;49.480;8.512;2023-07-16T14:22:02;25.80;97.20
44117;DHT22;29781;49.480;8.512;2023-07-16T14:24:27;25.80;96.60
44117;DHT22;29781;49.480;8.512;2023-07-16T14:26:53;25.90;96.70
44117;DHT22;29781;49.480;8.512;2023-07-16T14:29:18;26.00;96.70
44117;DHT22;29781;49.480;8.512;2023-07-16T14:31:44;26.00;96.10
44117;DHT22;29781;49.480;8.512;2023-07-16T14:34:10;26.20;95.10
44117;DHT22;29781;49.480;8.512;2023-07-16T14:36:35;26.20;94.80
44117;DHT22;29781;49.480;8.512;2023-07-16T14:39:01;26.10;95.20
44117;DHT22;29781;49.480;8.512;2023-07-16T14:41:26;26.10;95.40
44117;DHT22;29781;49.480;8.512;2023-07-16T14:43:52;26.30;95.40
44117;DHT22;29781;49.480;8.512;2023-07-16T14:46:18;26.30;95.20
44117;DHT22;29781;49.480;8.512;2023-07-16T14:48:43;26.30;95.60
44117;DHT22;29781;49.480;8.512;2023-07-16T14:51:12;26.40;94.90
44117;DHT22;29781;49.480;8.512;2023-07-16T14:53:38;26.50;95.00
44117;DHT22;29781;49.480;8.512;2023-07-16T14:56:04;26.40;95.00
44117;DHT22;29781;49.480;8.512;2023-07-16T14:58:33;26.20;95.00
44117;DHT22;29781;49.480;8.512;2023-07-16T15:01:02;26.10;95.00
44117;DHT22;29781;49.480;8.512;2023-07-16T15:03:30;26.30;95.10
44117;DHT22;29781;49.480;8.512;2023-07-16T15:05:57;26.30;94.90
44117;DHT22;29781;49.480;8.512;2023-07-16T15:08:23;26.10;94.80
44117;DHT22;29781;49.480;8.512;2023-07-16T15:10:49;26.10;95.20
44117;DHT22;29781;49.480;8.512;2023-07-16T15:13:16;26.30;95.00
44117;DHT22;29781;49.480;8.512;2023-07-16T15:15:50;26.30;95.00
44117;DHT22;29781;49.480;8.512;2023-07-16T15:18:15;26.10;95.10
44117;DHT22;29781;49.480;8.512;2023-07-16T15:20:41;26.10;95.30
44117;DHT22;29781;49.480;8.512;2023-07-16T15:23:07;26.20;95.10
44117;DHT22;29781;49.480;8.512;2023-07-16T15:25:32;26.40;94.80
44117;DHT22;29781;49.480;8.512;2023-07-16T15:27:58;26.50;95.00
44117;DHT22;29781;49.480;8.512;2023-07-16T15:30:25;26.50;94.50
44117;DHT22;29781;49.480;8.512;2023-07-16T15:32:51;26.30;94.90
44117;DHT22;29781;49.480;8.512;2023-07-16T15:35:16;26.30;94.40
44117;DHT22;29781;49.480;8.512;2023-07-16T15:37:42;26.30;94.50